createdAt,value
2018-06-24T00:00:28.006Z,101968.64
2018-06-24T00:02:57.592Z,101966.31
2018-06-24T00:05:27.733Z,101965.77
2018-06-24T00:07:57.049Z,101967.36
2018-06-24T00:10:26.990Z,101963.14
2018-06-24T00:12:56.929Z,101961.27
2018-06-24T00:15:27.029Z,101956.66
2018-06-24T00:17:56.992Z,101955.31
2018-06-24T00:20:26.357Z,101957.48
2018-06-24T00:22:55.764Z,101953.95
2018-06-24T00:25:25.577Z,101955.31
2018-06-24T00:27:55.706Z,101949.66
2018-06-24T00:30:25.252Z,101944.30
2018-06-24T00:32:55.194Z,101941.01
2018-06-24T00:35:24.653Z,101937.67
2018-06-24T00:37:54.330Z,101934.58
2018-06-24T00:40:24.416Z,101930.74
2018-06-24T00:42:53.888Z,101925.94
2018-06-24T00:45:23.148Z,101925.78
2018-06-24T00:47:53.343Z,101921.55
2018-06-24T00:50:22.858Z,101916.12
2018-06-24T00:52:52.249Z,101906.79
2018-06-24T00:55:21.666Z,101889.24
2018-06-24T00:57:51.662Z,101888.55
2018-06-24T01:00:21.209Z,101890.36
2018-06-24T01:02:51.627Z,101894.74
2018-06-24T01:05:21.508Z,101892.16
2018-06-24T01:07:51.029Z,101891.42
2018-06-24T01:10:20.815Z,101888.17
2018-06-24T01:12:50.304Z,101892.93
2018-06-24T01:15:19.873Z,101891.34
2018-06-24T01:17:49.187Z,101891.41
2018-06-24T01:20:18.841Z,101883.72
2018-06-24T01:22:48.988Z,101892.94
2018-06-24T01:25:18.824Z,101894.13
2018-06-24T01:27:48.292Z,101895.95
2018-06-24T01:30:17.643Z,101905.05
2018-06-24T01:32:46.950Z,101893.16
2018-06-24T01:35:16.708Z,101887.86
2018-06-24T01:37:46.311Z,101887.43
2018-06-24T01:40:15.636Z,101887.50
2018-06-24T01:42:45.583Z,101879.14
2018-06-24T01:45:15.108Z,101891.11
2018-06-24T01:47:44.773Z,101884.03
2018-06-24T01:50:14.095Z,101876.28
2018-06-24T01:52:44.146Z,101874.08
2018-06-24T01:55:14.040Z,101879.11
2018-06-24T01:57:43.364Z,101875.59
2018-06-24T02:00:12.717Z,101881.39
2018-06-24T02:02:42.673Z,101882.05
2018-06-24T02:05:12.071Z,101876.05
2018-06-24T02:07:41.301Z,101872.06
2018-06-24T02:10:10.762Z,101871.60
2018-06-24T02:12:40.183Z,101863.78
2018-06-24T02:15:09.737Z,101867.26
2018-06-24T02:17:39.697Z,101868.16
2018-06-24T02:20:10.013Z,101866.14
2018-06-24T02:22:39.723Z,101874.97
2018-06-24T02:25:09.836Z,101872.25
2018-06-24T02:27:39.555Z,101873.34
2018-06-24T02:30:09.212Z,101874.69
2018-06-24T02:32:39.248Z,101873.92
2018-06-24T02:35:08.873Z,101872.88
2018-06-24T02:37:38.373Z,101873.26
2018-06-24T02:40:07.649Z,101876.48
2018-06-24T02:42:36.950Z,101874.08
2018-06-24T02:45:06.579Z,101885.03
2018-06-24T02:47:35.829Z,101876.59
2018-06-24T02:50:05.508Z,101878.03
2018-06-24T02:52:35.036Z,101874.92
2018-06-24T02:55:04.875Z,101871.67
2018-06-24T02:57:34.883Z,101872.68
2018-06-24T03:00:04.645Z,101867.77
2018-06-24T03:02:34.052Z,101868.00
2018-06-24T03:05:03.825Z,101872.72
2018-06-24T03:07:33.199Z,101872.68
2018-06-24T03:10:02.808Z,101869.58
2018-06-24T03:12:32.878Z,101869.81
2018-06-24T03:15:02.458Z,101866.80
2018-06-24T03:17:32.682Z,101870.23
2018-06-24T03:20:02.608Z,101870.86
2018-06-24T03:22:32.571Z,101863.84
2018-06-24T03:25:02.097Z,101863.45
2018-06-24T03:27:32.094Z,101870.77
2018-06-24T03:30:01.474Z,101873.67
2018-06-24T03:32:31.187Z,101866.78
2018-06-24T03:35:00.581Z,101867.59
2018-06-24T03:37:29.873Z,101869.77
2018-06-24T03:39:59.048Z,101868.72
2018-06-24T03:42:28.393Z,101872.04
2018-06-24T03:44:58.186Z,101870.61
2018-06-24T03:47:27.819Z,101867.90
2018-06-24T03:49:57.492Z,101871.11
2018-06-24T03:52:27.402Z,101878.51
2018-06-24T03:54:57.207Z,101883.32
2018-06-24T03:57:26.527Z,101872.36
2018-06-24T03:59:55.974Z,101883.05
2018-06-24T04:02:26.070Z,101872.62
2018-06-24T04:04:56.126Z,101863.45
2018-06-24T04:07:25.512Z,101872.36
2018-06-24T04:09:54.849Z,101877.63
2018-06-24T04:12:24.595Z,101878.68
2018-06-24T04:14:54.795Z,101870.08
2018-06-24T04:17:24.364Z,101872.08
2018-06-24T04:19:53.918Z,101875.63
2018-06-24T04:22:23.500Z,101881.95
2018-06-24T04:24:53.137Z,101877.58
2018-06-24T04:27:23.058Z,101871.34
2018-06-24T04:29:52.851Z,101870.15
2018-06-24T04:32:22.270Z,101878.73
2018-06-24T04:34:52.003Z,101884.66
2018-06-24T04:37:22.732Z,101881.44
2018-06-24T04:39:52.216Z,101890.72
2018-06-24T04:42:21.784Z,101902.53
2018-06-24T04:44:51.646Z,101899.00
2018-06-24T04:47:21.050Z,101900.67
2018-06-24T04:49:50.355Z,101904.05
2018-06-24T04:52:19.575Z,101899.78
2018-06-24T04:54:49.323Z,101901.48
2018-06-24T04:57:19.449Z,101904.13
2018-06-24T04:59:48.740Z,101905.80
2018-06-24T05:02:18.562Z,101897.97
2018-06-24T05:04:47.902Z,101897.81
2018-06-24T05:07:17.437Z,101900.33
2018-06-24T05:09:47.013Z,101898.16
2018-06-24T05:12:16.937Z,101900.95
2018-06-24T05:14:46.819Z,101905.75
2018-06-24T05:17:16.512Z,101916.80
2018-06-24T05:19:49.700Z,101912.57
2018-06-24T05:22:19.404Z,101910.75
2018-06-24T05:24:48.643Z,101914.63
2018-06-24T05:27:17.936Z,101916.80
2018-06-24T05:29:47.723Z,101914.63
2018-06-24T05:32:17.726Z,101918.62
2018-06-24T05:34:47.045Z,101914.90
2018-06-24T05:37:16.844Z,101919.51
2018-06-24T05:39:46.569Z,101916.18
2018-06-24T05:42:15.951Z,101915.91
2018-06-24T05:44:45.378Z,101923.03
2018-06-24T05:47:14.826Z,101919.13
2018-06-24T05:49:44.267Z,101916.72
2018-06-24T05:52:13.808Z,101921.72
2018-06-24T05:54:44.323Z,101921.55
2018-06-24T05:57:13.699Z,101915.20
2018-06-24T05:59:44.055Z,101918.16
2018-06-24T06:02:13.402Z,101923.65
2018-06-24T06:04:43.071Z,101914.77
2018-06-24T06:07:12.847Z,101919.75
2018-06-24T06:09:42.201Z,101925.77
2018-06-24T06:12:15.219Z,101928.78
2018-06-24T06:14:45.272Z,101922.24
2018-06-24T06:17:15.162Z,101927.27
2018-06-24T06:19:44.903Z,101924.03
2018-06-24T06:22:14.297Z,101932.70
2018-06-24T06:24:43.923Z,101920.95
2018-06-24T06:27:13.889Z,101931.20
2018-06-24T06:29:44.201Z,101928.86
2018-06-24T06:32:14.386Z,101939.34
2018-06-24T06:34:43.926Z,101936.33
2018-06-24T06:37:13.332Z,101941.00
2018-06-24T06:39:43.394Z,101946.58
2018-06-24T06:42:12.955Z,101944.76
2018-06-24T06:44:42.963Z,101948.25
2018-06-24T06:47:12.261Z,101945.83
2018-06-24T06:49:41.791Z,101955.98
2018-06-24T06:52:11.945Z,101955.91
2018-06-24T06:54:41.589Z,101950.42
2018-06-24T06:57:15.630Z,101950.05
2018-06-24T06:59:45.230Z,101956.53
2018-06-24T07:02:15.299Z,101958.70
2018-06-24T07:04:45.117Z,101952.47
2018-06-24T07:07:14.819Z,101951.24
2018-06-24T07:09:44.414Z,101951.53
2018-06-24T07:12:14.241Z,101955.45
2018-06-24T07:14:43.731Z,101958.48
2018-06-24T07:17:13.558Z,101959.08
2018-06-24T07:19:43.261Z,101958.63
2018-06-24T07:22:12.783Z,101962.08
2018-06-24T07:24:42.353Z,101958.25
2018-06-24T07:27:11.726Z,101955.87
2018-06-24T07:29:41.079Z,101954.94
2018-06-24T07:32:11.104Z,101957.08
2018-06-24T07:34:41.089Z,101963.86
2018-06-24T07:37:10.771Z,101960.30
2018-06-24T07:39:40.658Z,101961.05
2018-06-24T07:42:10.159Z,101960.64
2018-06-24T07:44:39.824Z,101960.50
2018-06-24T07:47:09.359Z,101961.86
2018-06-24T07:49:38.712Z,101968.79
2018-06-24T07:52:08.975Z,101962.13
2018-06-24T07:54:39.139Z,101960.44
2018-06-24T07:57:08.741Z,101959.27
2018-06-24T07:59:38.532Z,101955.00
2018-06-24T08:02:07.923Z,101957.61
2018-06-24T08:04:37.279Z,101953.41
2018-06-24T08:07:07.467Z,101955.91
2018-06-24T08:09:37.274Z,101948.19
2018-06-24T08:12:07.160Z,101953.62
2018-06-24T08:14:36.760Z,101944.95
2018-06-24T08:17:06.828Z,101944.28
2018-06-24T08:19:36.348Z,101941.39
2018-06-24T08:22:06.214Z,101941.59
2018-06-24T08:24:38.861Z,101943.48
2018-06-24T08:27:08.560Z,101944.59
2018-06-24T08:29:38.814Z,101945.17
2018-06-24T08:32:08.941Z,101943.42
2018-06-24T08:34:38.656Z,101950.23
2018-06-24T08:37:08.883Z,101948.06
2018-06-24T08:39:42.422Z,101953.69
2018-06-24T08:42:15.492Z,101956.92
2018-06-24T08:44:45.223Z,101955.56
2018-06-24T08:47:14.862Z,101954.57
2018-06-24T08:49:45.012Z,101954.36
2018-06-24T08:52:15.293Z,101959.52
2018-06-24T08:54:45.478Z,101962.79
2018-06-24T08:57:15.427Z,101958.65
2018-06-24T08:59:45.634Z,101970.70
2018-06-24T09:02:15.950Z,101970.38
2018-06-24T09:04:45.756Z,101969.58
2018-06-24T09:07:15.495Z,101977.50
2018-06-24T09:09:46.519Z,101978.87
2018-06-24T09:12:16.815Z,101971.88
2018-06-24T09:14:46.349Z,101964.61
2018-06-24T09:17:16.668Z,101969.41
2018-06-24T09:19:46.357Z,101973.95
2018-06-24T09:22:15.806Z,101965.48
2018-06-24T09:24:46.480Z,101971.41
2018-06-24T09:27:16.351Z,101960.22
2018-06-24T09:29:45.730Z,101964.09
2018-06-24T09:32:15.820Z,101958.09
2018-06-24T09:34:45.665Z,101953.19
2018-06-24T09:37:15.340Z,101946.88
2018-06-24T09:39:44.660Z,101946.49
2018-06-24T09:42:14.455Z,101952.10
2018-06-24T09:44:44.526Z,101956.34
2018-06-24T09:47:14.299Z,101955.59
2018-06-24T09:49:44.371Z,101954.53
2018-06-24T09:52:15.036Z,101956.34
2018-06-24T09:54:44.893Z,101958.50
2018-06-24T09:57:14.247Z,101958.91
2018-06-24T09:59:44.350Z,101961.84
2018-06-24T10:02:13.787Z,101966.80
2018-06-24T10:04:44.079Z,101961.55
2018-06-24T10:07:13.797Z,101965.66
2018-06-24T10:09:43.654Z,101953.86
2018-06-24T10:12:13.038Z,101954.80
2018-06-24T10:14:42.955Z,101940.75
2018-06-24T10:17:13.148Z,101947.98
2018-06-24T10:19:42.815Z,101937.23
2018-06-24T10:22:12.882Z,101935.11
2018-06-24T10:24:42.669Z,101935.97
2018-06-24T10:27:12.263Z,101941.17
2018-06-24T10:29:43.108Z,101944.78
2018-06-24T10:32:13.237Z,101943.22
2018-06-24T10:34:43.066Z,101947.20
2018-06-24T10:37:12.787Z,101941.66
2018-06-24T10:39:42.382Z,101942.92
2018-06-24T10:42:11.730Z,101948.84
2018-06-24T10:44:41.446Z,101953.83
2018-06-24T10:47:11.198Z,101959.72
2018-06-24T10:49:41.165Z,101960.98
2018-06-24T10:52:11.124Z,101955.58
2018-06-24T10:54:40.843Z,101962.05
2018-06-24T10:57:10.138Z,101954.23
2018-06-24T10:59:39.808Z,101952.66
2018-06-24T11:02:09.721Z,101959.66
2018-06-24T11:04:39.540Z,101957.08
2018-06-24T11:07:08.898Z,101944.38
2018-06-24T11:09:38.796Z,101943.23
2018-06-24T11:12:08.290Z,101943.38
2018-06-24T11:14:38.648Z,101947.50
2018-06-24T11:17:07.976Z,101937.78
2018-06-24T11:19:38.325Z,101941.91
2018-06-24T11:22:08.203Z,101940.25
2018-06-24T11:24:37.765Z,101940.08
2018-06-24T11:27:07.080Z,101939.53
2018-06-24T11:29:36.749Z,101949.25
2018-06-24T11:32:06.395Z,101942.89
2018-06-24T11:34:37.249Z,101940.38
2018-06-24T11:37:07.071Z,101934.50
2018-06-24T11:39:36.500Z,101930.41
2018-06-24T11:42:06.064Z,101932.97
2018-06-24T11:44:35.949Z,101934.33
2018-06-24T11:47:05.787Z,101932.46
2018-06-24T11:49:35.304Z,101930.75
2018-06-24T11:52:05.220Z,101933.61
2018-06-24T11:54:35.287Z,101938.84
2018-06-24T11:57:04.798Z,101927.56
2018-06-24T11:59:34.532Z,101934.16
2018-06-24T12:02:03.883Z,101931.26
2018-06-24T12:04:34.501Z,101923.89
2018-06-24T12:07:04.196Z,101917.80
2018-06-24T12:09:34.404Z,101918.77
2018-06-24T12:12:03.838Z,101921.47
2018-06-24T12:14:33.634Z,101924.75
2018-06-24T12:17:03.380Z,101918.56
2018-06-24T12:19:33.332Z,101920.35
2018-06-24T12:22:02.918Z,101924.33
2018-06-24T12:24:32.748Z,101917.51
2018-06-24T12:27:02.180Z,101917.77
2018-06-24T12:29:32.310Z,101925.42
2018-06-24T12:32:01.801Z,101929.47
2018-06-24T12:34:31.709Z,101926.83
2018-06-24T12:37:04.856Z,101918.81
2018-06-24T12:39:34.584Z,101914.82
2018-06-24T12:42:05.560Z,101911.07
2018-06-24T12:44:35.478Z,101909.80
2018-06-24T12:47:05.512Z,101902.89
2018-06-24T12:49:34.816Z,101906.98
2018-06-24T12:52:04.712Z,101906.34
2018-06-24T12:54:34.395Z,101903.02
2018-06-24T12:57:04.021Z,101903.05
2018-06-24T12:59:34.362Z,101903.44
2018-06-24T13:02:03.734Z,101911.06
2018-06-24T13:04:33.364Z,101905.40
2018-06-24T13:07:07.347Z,101902.08
2018-06-24T13:09:37.368Z,101900.72
2018-06-24T13:12:07.216Z,101908.98
2018-06-24T13:14:36.879Z,101905.66
2018-06-24T13:17:07.017Z,101908.13
2018-06-24T13:19:36.585Z,101904.06
2018-06-24T13:22:06.440Z,101902.95
2018-06-24T13:24:36.211Z,101901.68
2018-06-24T13:27:06.498Z,101890.66
2018-06-24T13:29:36.391Z,101883.25
2018-06-24T13:32:06.348Z,101884.36
2018-06-24T13:34:36.175Z,101892.16
2018-06-24T13:37:05.762Z,101892.32
2018-06-24T13:39:35.417Z,101891.09
2018-06-24T13:42:05.056Z,101889.85
2018-06-24T13:44:34.672Z,101883.12
2018-06-24T13:47:04.084Z,101887.94
2018-06-24T13:49:33.707Z,101885.98
2018-06-24T13:52:03.739Z,101892.36
2018-06-24T13:54:33.146Z,101895.35
2018-06-24T13:57:02.907Z,101893.77
2018-06-24T13:59:32.257Z,101894.03
2018-06-24T14:02:01.867Z,101901.86
2018-06-24T14:04:31.472Z,101894.66
2018-06-24T14:07:01.567Z,101895.27
2018-06-24T14:09:30.992Z,101895.05
2018-06-24T14:12:01.002Z,101896.50
2018-06-24T14:14:31.434Z,101889.43
2018-06-24T14:17:00.951Z,101891.56
2018-06-24T14:19:30.932Z,101900.16
2018-06-24T14:22:04.505Z,101899.52
2018-06-24T14:24:33.875Z,101896.22
2018-06-24T14:27:04.046Z,101894.30
2018-06-24T14:29:33.607Z,101895.55
2018-06-24T14:32:03.093Z,101897.50
2018-06-24T14:34:32.566Z,101899.53
2018-06-24T14:37:02.934Z,101902.61
2018-06-24T14:39:33.252Z,101902.13
2018-06-24T14:42:03.556Z,101892.53
2018-06-24T14:44:33.121Z,101894.86
2018-06-24T14:47:07.083Z,101898.27
2018-06-24T14:49:36.944Z,101900.58
2018-06-24T14:52:06.674Z,101897.95
2018-06-24T14:54:36.591Z,101894.41
2018-06-24T14:57:06.191Z,101895.70
2018-06-24T14:59:36.218Z,101892.58
2018-06-24T15:02:06.763Z,101885.93
2018-06-24T15:04:36.572Z,101886.91
2018-06-24T15:07:05.946Z,101889.77
2018-06-24T15:09:35.559Z,101889.09
2018-06-24T15:12:05.410Z,101884.31
2018-06-24T15:14:35.018Z,101889.77
2018-06-24T15:17:05.136Z,101887.34
2018-06-24T15:19:35.112Z,101891.05
2018-06-24T15:22:05.052Z,101884.30
2018-06-24T15:24:35.200Z,101893.19
2018-06-24T15:27:04.952Z,101890.30
2018-06-24T15:29:35.181Z,101896.81
2018-06-24T15:32:04.682Z,101892.53
2018-06-24T15:34:34.324Z,101903.55
2018-06-24T15:37:04.479Z,101894.77
2018-06-24T15:39:34.334Z,101892.81
2018-06-24T15:42:03.725Z,101891.72
2018-06-24T15:44:33.107Z,101888.61
2018-06-24T15:47:03.151Z,101882.95
2018-06-24T15:49:33.162Z,101885.48
2018-06-24T15:52:03.009Z,101879.98
2018-06-24T15:54:32.533Z,101884.82
2018-06-24T15:57:02.202Z,101874.39
2018-06-24T15:59:32.522Z,101882.91
2018-06-24T16:02:02.668Z,101876.64
2018-06-24T16:04:32.142Z,101875.58
2018-06-24T16:07:02.056Z,101882.09
2018-06-24T16:09:31.696Z,101873.92
2018-06-24T16:12:05.269Z,101874.22
2018-06-24T16:14:34.791Z,101875.38
2018-06-24T16:17:04.189Z,101870.70
2018-06-24T16:19:33.741Z,101869.84
2018-06-24T16:22:03.147Z,101869.29
2018-06-24T16:24:34.552Z,101868.43
2018-06-24T16:27:04.566Z,101876.65
2018-06-24T16:29:33.904Z,101869.80
2018-06-24T16:34:32.057Z,101868.17
2018-06-24T16:37:01.754Z,101863.87
2018-06-24T16:39:31.869Z,101863.82
2018-06-24T16:42:05.299Z,101865.70
2018-06-24T16:44:35.283Z,101866.86
2018-06-24T16:47:04.625Z,101866.09
2018-06-24T16:49:34.574Z,101868.38
2018-06-24T16:52:04.327Z,101863.03
2018-06-24T16:54:34.138Z,101862.12
2018-06-24T16:57:03.478Z,101863.33
2018-06-24T16:59:33.567Z,101862.97
2018-06-24T17:02:03.257Z,101858.38
2018-06-24T17:04:33.541Z,101868.17
2018-06-24T17:07:03.637Z,101863.57
2018-06-24T17:09:33.331Z,101860.59
2018-06-24T17:12:02.908Z,101865.80
2018-06-24T17:14:32.945Z,101865.95
2018-06-24T17:17:03.034Z,101868.77
2018-06-24T17:19:32.719Z,101862.58
2018-06-24T17:22:02.122Z,101863.17
2018-06-24T17:24:31.981Z,101866.05
2018-06-24T17:27:01.901Z,101865.14
2018-06-24T17:29:32.444Z,101860.06
2018-06-24T17:32:02.536Z,101856.63
2018-06-24T17:34:33.088Z,101854.55
2018-06-24T17:37:03.016Z,101856.47
2018-06-24T17:39:36.383Z,101864.09
2018-06-24T17:42:05.705Z,101863.67
2018-06-24T17:44:36.039Z,101856.02
2018-06-24T17:47:06.347Z,101864.54
2018-06-24T17:49:36.180Z,101872.36
2018-06-24T17:52:06.367Z,101873.72
2018-06-24T17:54:36.426Z,101863.70
2018-06-24T17:57:05.536Z,101859.70
2018-06-24T17:59:35.292Z,101864.38
2018-06-24T18:02:04.570Z,101854.75
2018-06-24T18:04:34.242Z,101855.52
2018-06-24T18:07:03.529Z,101850.11
2018-06-24T18:09:33.251Z,101854.75
2018-06-24T18:12:02.834Z,101852.52
2018-06-24T18:14:32.540Z,101853.42
2018-06-24T18:17:05.743Z,101859.88
2018-06-24T18:19:35.571Z,101857.05
2018-06-24T18:22:04.883Z,101850.52
2018-06-24T18:24:35.059Z,101847.03
2018-06-24T18:27:05.162Z,101844.82
2018-06-24T18:29:34.878Z,101840.64
2018-06-24T18:32:04.232Z,101837.42
2018-06-24T18:34:34.211Z,101839.63
2018-06-24T18:37:04.193Z,101836.66
2018-06-24T18:39:34.584Z,101838.42
2018-06-24T18:42:04.141Z,101833.03
2018-06-24T18:44:36.186Z,101833.20
2018-06-24T18:47:06.179Z,101829.36
2018-06-24T18:49:35.979Z,101830.16
2018-06-24T18:52:05.756Z,101838.73
2018-06-24T18:54:35.562Z,101844.26
2018-06-24T18:57:04.978Z,101848.47
2018-06-24T18:59:34.400Z,101849.45
2018-06-24T19:02:04.149Z,101858.45
2018-06-24T19:04:33.998Z,101860.87
2018-06-24T19:07:03.929Z,101858.16
2018-06-24T19:09:37.063Z,101855.33
2018-06-24T19:12:06.719Z,101856.92
2018-06-24T19:14:36.906Z,101859.75
2018-06-24T19:17:06.857Z,101861.92
2018-06-24T19:19:36.462Z,101857.33
2018-06-24T19:22:06.576Z,101856.36
2018-06-24T19:24:36.652Z,101858.03
2018-06-24T19:27:06.080Z,101851.11
2018-06-24T19:29:35.565Z,101856.55
2018-06-24T19:32:05.641Z,101856.37
2018-06-24T19:34:35.128Z,101863.78
2018-06-24T19:37:04.792Z,101863.17
2018-06-24T19:39:34.146Z,101858.80
2018-06-24T19:42:03.548Z,101867.98
2018-06-24T19:44:33.097Z,101880.61
2018-06-24T19:47:02.832Z,101879.81
2018-06-24T19:49:32.796Z,101878.81
2018-06-24T19:52:02.184Z,101884.56
2018-06-24T19:54:31.594Z,101883.88
2018-06-24T19:57:01.054Z,101888.34
2018-06-24T19:59:30.868Z,101886.77
2018-06-24T20:02:01.567Z,101893.69
2018-06-24T20:04:31.191Z,101894.45
2018-06-24T20:07:00.787Z,101894.63
2018-06-24T20:09:33.698Z,101898.70
2018-06-24T20:12:03.018Z,101900.12
2018-06-24T20:14:32.456Z,101906.61
2018-06-24T20:17:02.248Z,101903.58
2018-06-24T20:19:31.662Z,101900.63
2018-06-24T20:22:01.804Z,101896.10
2018-06-24T20:24:31.797Z,101907.03
2018-06-24T20:27:01.377Z,101912.91
2018-06-24T20:29:30.788Z,101906.11
2018-06-24T20:32:00.349Z,101909.95
2018-06-24T20:34:30.057Z,101909.07
2018-06-24T20:36:59.662Z,101911.18
2018-06-24T20:39:31.191Z,101913.88
2018-06-24T20:42:00.989Z,101907.21
2018-06-24T20:44:30.301Z,101912.95
2018-06-24T20:46:59.729Z,101922.78
2018-06-24T20:49:32.782Z,101916.06
2018-06-24T20:52:02.288Z,101919.79
2018-06-24T20:54:32.116Z,101916.36
2018-06-24T20:57:01.973Z,101914.33
2018-06-24T20:59:31.790Z,101910.94
2018-06-24T21:02:01.656Z,101915.78
2018-06-24T21:04:31.044Z,101914.84
2018-06-24T21:07:01.234Z,101914.22
2018-06-24T21:09:31.018Z,101916.36
2018-06-24T21:12:00.371Z,101921.28
2018-06-24T21:14:33.382Z,101926.09
2018-06-24T21:17:02.785Z,101923.52
2018-06-24T21:19:32.201Z,101921.35
2018-06-24T21:22:01.607Z,101918.84
2018-06-24T21:24:40.225Z,101917.48
2018-06-24T21:27:11.166Z,101928.82
2018-06-24T21:29:41.162Z,101932.48
2018-06-24T21:32:11.160Z,101930.24
2018-06-24T21:34:41.239Z,101925.56
2018-06-24T21:37:10.663Z,101922.98
2018-06-24T21:39:40.658Z,101919.59
2018-06-24T21:42:10.445Z,101920.50
2018-06-24T21:44:40.112Z,101916.88
2018-06-24T21:47:09.719Z,101917.86
2018-06-24T21:49:39.431Z,101924.34
2018-06-24T21:52:08.778Z,101920.27
2018-06-24T21:54:38.043Z,101926.89
2018-06-24T21:57:07.327Z,101923.87
2018-06-24T21:59:37.605Z,101918.64
2018-06-24T22:02:07.641Z,101924.44
2018-06-24T22:04:37.957Z,101923.16
2018-06-24T22:07:07.724Z,101917.28
2018-06-24T22:09:38.189Z,101923.16
2018-06-24T22:12:07.581Z,101927.67
2018-06-24T22:14:40.751Z,101922.61
2018-06-24T22:17:11.097Z,101919.59
2018-06-24T22:19:40.606Z,101924.27
2018-06-24T22:22:10.203Z,101924.14
2018-06-24T22:24:39.557Z,101925.46
2018-06-24T22:27:09.406Z,101921.69
2018-06-24T22:29:38.814Z,101928.55
2018-06-24T22:32:08.911Z,101924.65
2018-06-24T22:34:38.928Z,101922.98
2018-06-24T22:37:08.430Z,101924.78
2018-06-24T22:39:38.549Z,101913.78
2018-06-24T22:42:08.021Z,101921.32
2018-06-24T22:44:37.624Z,101923.80
2018-06-24T22:47:07.026Z,101925.63
2018-06-24T22:49:36.438Z,101923.73
2018-06-24T22:52:05.846Z,101928.92
2018-06-24T22:54:35.585Z,101928.86
2018-06-24T22:57:05.233Z,101931.95
2018-06-24T23:00:42.823Z,101932.63
2018-06-24T23:03:12.091Z,101933.06
2018-06-24T23:05:41.864Z,101932.39
2018-06-24T23:08:11.285Z,101924.65
2018-06-24T23:10:41.054Z,101923.56
2018-06-24T23:13:10.453Z,101926.75
2018-06-24T23:15:40.100Z,101927.59
2018-06-24T23:18:10.117Z,101922.71
2018-06-24T23:20:39.775Z,101924.98
2018-06-24T23:23:09.252Z,101922.56
2018-06-24T23:25:38.979Z,101920.60
2018-06-24T23:28:08.348Z,101921.41
2018-06-24T23:30:38.603Z,101920.43
2018-06-24T23:33:08.515Z,101921.52
2018-06-24T23:35:38.433Z,101918.42
2018-06-24T23:38:08.072Z,101906.86
2018-06-24T23:40:37.669Z,101903.39
2018-06-24T23:43:07.644Z,101906.69
2018-06-24T23:45:37.172Z,101910.95
2018-06-24T23:48:06.685Z,101907.63
2018-06-24T23:50:36.792Z,101903.21
2018-06-24T23:53:07.742Z,101909.93
2018-06-24T23:55:37.764Z,101906.77
2018-06-24T23:58:07.098Z,101900.73
